createdAt,value
2019-04-22T02:43:43.973Z,20.00
2019-04-22T02:54:17.218Z,16.00
2019-04-22T03:04:00.594Z,16.50
2019-04-22T03:14:11.797Z,20.75
2019-04-22T03:19:14.415Z,27.60
2019-04-22T03:21:36.736Z,19.80
2019-04-22T03:29:15.076Z,25.00
2019-04-22T03:39:45.918Z,16.80
2019-04-22T03:42:07.129Z,18.00
2019-04-22T03:44:44.452Z,20.00
2019-04-22T03:47:21.330Z,19.40
2019-04-22T03:50:04.653Z,18.40
2019-04-22T03:54:54.469Z,20.00
2019-04-22T03:57:49.061Z,15.00
2019-04-22T03:59:57.258Z,18.00
2019-04-22T04:10:10.267Z,18.50
2019-04-22T04:13:03.332Z,23.60
2019-04-22T04:15:20.964Z,26.40
2019-04-22T04:20:24.307Z,20.40
2019-04-22T04:30:30.217Z,23.20
2019-04-22T04:32:58.950Z,19.00
2019-04-22T04:40:31.171Z,24.00
2019-04-22T04:43:07.845Z,24.20
2019-04-22T04:45:51.224Z,21.80
2019-04-22T04:48:14.444Z,20.60
2019-04-22T04:50:53.323Z,28.60
2019-04-22T04:53:24.941Z,20.40
2019-04-22T04:55:46.286Z,28.80
2019-04-22T05:03:43.527Z,27.20
2019-04-22T05:06:01.387Z,25.50
2019-04-22T05:08:54.603Z,26.00
2019-04-22T05:13:50.127Z,22.20
2019-04-22T05:18:44.782Z,22.80
2019-04-22T05:21:14.802Z,23.00
2019-04-22T05:23:43.868Z,23.75
2019-04-22T05:26:26.176Z,21.80
2019-04-22T05:29:05.583Z,30.40
2019-04-22T05:31:30.889Z,24.40
2019-04-22T05:33:51.050Z,24.25
2019-04-22T05:36:42.641Z,22.50
2019-04-22T05:39:00.262Z,25.00
2019-04-22T05:41:30.577Z,25.20
2019-04-22T05:44:03.241Z,23.60
2019-04-22T05:46:35.837Z,33.20
2019-04-22T05:49:08.436Z,26.75
2019-04-22T05:54:14.611Z,24.60
2019-04-22T05:56:41.257Z,22.25
2019-04-22T05:59:17.752Z,24.25
2019-04-22T06:02:01.196Z,21.60
2019-04-22T06:04:37.196Z,28.25
2019-04-22T06:06:54.146Z,16.00
2019-04-22T06:09:47.195Z,21.80
2019-04-22T06:11:54.368Z,18.20
2019-04-22T06:14:24.742Z,23.80
2019-04-22T06:17:03.920Z,19.00
2019-04-22T06:19:38.651Z,22.00
2019-04-22T06:22:16.951Z,19.00
2019-04-22T06:26:10.148Z,28.50
2019-04-22T06:31:10.741Z,20.60
2019-04-22T06:33:40.490Z,18.80
2019-04-22T06:36:17.996Z,15.50
2019-04-22T06:39:05.261Z,24.00
2019-04-22T06:41:24.852Z,18.75
2019-04-22T06:43:56.162Z,14.00
2019-04-22T06:46:25.676Z,21.00
2019-04-22T06:49:01.432Z,16.00
2019-04-22T06:51:27.118Z,14.00
2019-04-22T06:54:01.744Z,18.50
2019-04-22T06:56:27.449Z,17.60
2019-04-22T06:59:10.004Z,16.00
2019-04-22T07:01:43.159Z,21.40
2019-04-22T07:04:14.137Z,14.00
2019-04-22T07:11:42.954Z,15.00
2019-04-22T07:14:18.849Z,13.00
2019-04-22T07:16:51.011Z,11.00
2019-04-22T07:19:31.912Z,10.00
2019-04-22T07:21:57.311Z,13.60
2019-04-22T07:27:04.690Z,9.40
2019-04-22T07:29:32.733Z,11.00
2019-04-22T07:32:07.788Z,13.40
2019-04-22T07:34:50.380Z,11.60
2019-04-22T07:37:20.008Z,11.60
2019-04-22T07:42:19.193Z,11.50
2019-04-22T07:44:53.300Z,13.60
2019-04-22T07:47:27.315Z,15.00
2019-04-22T07:50:23.403Z,11.75
2019-04-22T07:52:27.397Z,9.20
2019-04-22T07:54:56.967Z,12.00
2019-04-22T07:57:32.512Z,11.00
2019-04-22T08:00:09.127Z,12.00
2019-04-22T08:02:37.991Z,9.80
2019-04-22T08:05:26.352Z,11.00
2019-04-22T08:07:43.559Z,10.25
2019-04-22T08:10:25.573Z,14.80
2019-04-22T08:12:47.369Z,12.40
2019-04-22T08:15:19.945Z,15.50
2019-04-22T08:20:26.906Z,9.00
2019-04-22T08:23:01.272Z,9.00
2019-04-22T08:25:24.556Z,9.40
2019-04-22T08:28:03.400Z,8.50
2019-04-22T08:30:35.515Z,11.00
2019-04-22T08:33:13.892Z,10.00
2019-04-22T08:35:53.117Z,8.00
2019-04-22T08:38:11.646Z,9.00
2019-04-22T08:40:53.823Z,13.60
2019-04-22T08:43:20.943Z,10.00
2019-04-22T08:45:51.137Z,11.00
2019-04-22T08:48:24.850Z,9.60
2019-04-22T08:50:52.896Z,9.00
2019-04-22T08:53:35.426Z,8.00
2019-04-22T08:56:07.724Z,10.25
2019-04-22T08:58:31.551Z,9.60
2019-04-22T09:01:04.916Z,11.00
2019-04-22T09:03:39.819Z,10.00
2019-04-22T09:06:12.488Z,9.50
2019-04-22T09:08:45.606Z,6.60
2019-04-22T09:11:20.249Z,9.00
2019-04-22T09:13:50.417Z,7.20
2019-04-22T09:16:30.159Z,7.20
2019-04-22T09:18:53.980Z,6.00
2019-04-22T09:21:30.565Z,7.40
2019-04-22T09:23:58.330Z,9.00
2019-04-22T09:26:34.708Z,8.60
2019-04-22T09:29:05.127Z,10.20
2019-04-22T09:31:35.887Z,7.00
2019-04-22T09:34:06.518Z,12.00
2019-04-22T09:36:40.712Z,7.75
2019-04-22T09:39:15.414Z,7.00
2019-04-22T09:41:49.482Z,8.00
2019-04-22T09:44:19.100Z,9.40
2019-04-22T09:49:26.746Z,7.80
2019-04-22T09:51:58.649Z,6.60
2019-04-22T09:54:43.729Z,9.00
2019-04-22T09:57:03.963Z,7.00
2019-04-22T09:59:35.037Z,8.00
2019-04-22T10:02:19.747Z,5.60
2019-04-22T10:04:40.225Z,6.80
2019-04-22T10:07:17.606Z,5.60
2019-04-22T10:12:25.289Z,9.40
2019-04-22T10:14:49.221Z,7.00
2019-04-22T10:17:26.086Z,7.60
2019-04-22T10:19:53.521Z,10.60
2019-04-22T10:22:32.549Z,5.40
2019-04-22T10:25:03.355Z,5.20
2019-04-22T10:27:32.506Z,7.40
2019-04-22T10:30:04.567Z,6.40
2019-04-22T10:32:40.621Z,9.40
2019-04-22T10:35:09.254Z,8.00
2019-04-22T10:37:38.639Z,7.80
2019-04-22T10:40:15.904Z,8.20
2019-04-22T10:42:47.391Z,6.00
2019-04-22T10:45:20.045Z,4.60
2019-04-22T10:47:52.255Z,4.00
2019-04-22T10:50:33.156Z,9.60
2019-04-22T10:53:03.805Z,6.75
2019-04-22T10:55:35.186Z,4.40
2019-04-22T10:58:06.702Z,6.00
2019-04-22T11:00:39.727Z,4.75
2019-04-22T11:03:11.976Z,4.00
2019-04-22T11:05:44.309Z,4.75
2019-04-22T11:08:27.239Z,4.80
2019-04-22T11:11:05.793Z,6.40
2019-04-22T11:13:22.265Z,6.00
2019-04-22T11:15:53.369Z,5.00
2019-04-22T11:18:25.364Z,5.00
2019-04-22T11:20:57.759Z,5.00
2019-04-22T11:23:28.933Z,6.00
2019-04-22T11:26:01.796Z,4.60
2019-04-22T11:28:33.897Z,6.00
2019-04-22T11:31:06.095Z,7.00
2019-04-22T11:33:38.582Z,6.60
2019-04-22T11:36:10.126Z,5.50
2019-04-22T11:38:48.548Z,9.20
2019-04-22T11:41:14.755Z,7.00
2019-04-22T11:43:47.251Z,10.00
2019-04-22T11:46:18.633Z,7.40
2019-04-22T11:48:49.917Z,7.00
2019-04-22T11:51:22.126Z,8.00
2019-04-22T11:53:54.574Z,6.60
2019-04-22T11:56:27.134Z,6.00
2019-04-22T11:58:58.138Z,7.00
2019-04-22T12:01:29.112Z,8.00
2019-04-22T12:04:00.093Z,6.00
2019-04-22T12:06:31.808Z,6.00
2019-04-22T12:09:03.839Z,9.00
2019-04-22T12:11:36.454Z,5.00
2019-04-22T12:14:07.386Z,5.20
2019-04-22T12:16:39.355Z,6.00
2019-04-22T12:19:11.416Z,7.60
2019-04-22T12:21:42.532Z,7.60
2019-04-22T12:24:15.049Z,7.00
2019-04-22T12:26:46.384Z,7.00
2019-04-22T12:29:17.521Z,6.00
2019-04-22T12:31:49.397Z,7.40
2019-04-22T12:34:21.581Z,8.00
2019-04-22T12:36:52.484Z,8.00
2019-04-22T12:39:23.359Z,6.00
2019-04-22T12:41:54.364Z,9.40
2019-04-22T12:44:26.597Z,6.60
2019-04-22T12:47:00.220Z,6.40
2019-04-22T12:49:30.186Z,9.60
2019-04-22T12:52:01.190Z,8.00
2019-04-22T12:54:33.089Z,6.40
2019-04-22T12:57:04.095Z,6.60
2019-04-22T12:59:35.345Z,7.00
2019-04-22T13:02:07.213Z,6.20
2019-04-22T13:04:38.538Z,8.00
2019-04-22T13:07:09.481Z,7.40
2019-04-22T13:09:41.260Z,6.50
2019-04-22T13:12:13.121Z,6.00
2019-04-22T13:14:45.523Z,8.00
2019-04-22T13:17:17.106Z,6.00
2019-04-22T13:19:48.164Z,8.00
2019-04-22T13:22:19.199Z,5.40
2019-04-22T13:24:52.069Z,5.40
2019-04-22T13:27:24.679Z,7.00
2019-04-22T13:29:57.147Z,7.60
2019-04-22T13:32:28.943Z,5.40
2019-04-22T13:35:01.694Z,5.00
2019-04-22T13:37:32.759Z,6.80
2019-04-22T13:40:03.643Z,7.00
2019-04-22T13:42:35.499Z,2.00
2019-04-22T13:45:07.599Z,5.60
2019-04-22T13:51:36.192Z,3.00
2019-04-22T13:54:00.251Z,6.00
2019-04-22T13:55:45.345Z,5.00
2019-04-22T13:58:04.124Z,6.00
2019-04-22T14:00:26.966Z,6.00
2019-04-22T14:03:29.038Z,8.00
2019-04-22T14:06:00.820Z,5.00
2019-04-22T14:08:33.200Z,6.00
2019-04-22T14:11:16.818Z,4.60
2019-04-22T14:13:39.596Z,6.00
2019-04-22T14:16:13.164Z,8.00
2019-04-22T14:18:45.959Z,8.00
2019-04-22T14:21:18.811Z,7.00
2019-04-22T14:23:52.967Z,6.80
2019-04-22T14:26:25.040Z,5.60
2019-04-22T14:28:57.496Z,6.00
2019-04-22T14:31:28.705Z,7.25
2019-04-22T14:34:04.989Z,6.50
2019-04-22T14:36:35.234Z,5.00
2019-04-22T14:39:08.420Z,6.00
2019-04-22T14:41:54.769Z,5.00
2019-04-22T14:47:17.613Z,6.00
2019-04-22T14:49:43.495Z,7.00
2019-04-22T14:52:12.950Z,5.00
2019-04-22T14:54:35.015Z,8.00
2019-04-22T14:56:54.473Z,6.60
2019-04-22T14:59:25.375Z,7.00
2019-04-22T15:01:56.245Z,5.40
2019-04-22T15:04:27.259Z,6.00
2019-04-22T15:06:59.073Z,8.20
2019-04-22T15:09:30.192Z,7.80
2019-04-22T15:12:11.027Z,6.00
2019-04-22T15:14:33.665Z,8.40
2019-04-22T15:17:22.954Z,7.20
2019-04-22T15:20:07.824Z,6.00
2019-04-22T15:22:38.935Z,6.00
2019-04-22T15:25:10.432Z,11.20
2019-04-22T15:27:41.611Z,8.40
2019-04-22T15:30:12.404Z,10.00
2019-04-22T15:32:43.391Z,7.00
2019-04-22T15:35:15.508Z,6.40
2019-04-22T15:37:46.499Z,9.00
2019-04-22T15:40:18.510Z,7.00
2019-04-22T15:42:50.744Z,5.40
2019-04-22T15:45:25.893Z,6.00
2019-04-22T15:47:57.933Z,8.00
2019-04-22T15:50:28.793Z,9.00
2019-04-22T15:53:02.317Z,8.00
2019-04-22T15:55:32.677Z,11.40
2019-04-22T15:58:03.921Z,10.75
2019-04-22T16:00:44.437Z,7.50
2019-04-22T16:03:10.472Z,14.40
2019-04-22T16:05:39.924Z,10.00
2019-04-22T16:08:11.001Z,8.00
2019-04-22T16:10:42.118Z,10.60
2019-04-22T16:13:20.695Z,9.00
2019-04-22T16:15:46.774Z,9.00
2019-04-22T16:18:18.216Z,10.80
2019-04-22T16:20:50.314Z,9.00
2019-04-22T16:23:29.281Z,10.50
2019-04-22T16:26:17.890Z,11.60
2019-04-22T16:28:49.334Z,11.00
2019-04-22T16:31:21.837Z,13.00
2019-04-22T16:33:54.261Z,11.40
2019-04-22T16:36:26.616Z,12.75
2019-04-22T16:38:57.667Z,14.00
2019-04-22T16:41:28.679Z,17.25
2019-04-22T16:44:00.762Z,15.40
2019-04-22T16:46:31.933Z,14.60
2019-04-22T16:49:03.411Z,14.80
2019-04-22T16:51:36.197Z,15.20
2019-04-22T16:54:08.534Z,14.50
2019-04-22T16:56:39.755Z,12.00
2019-04-22T16:59:10.791Z,12.00
2019-04-22T17:05:57.299Z,12.40
2019-04-22T18:26:22.882Z,139.20
2019-04-22T18:55:08.587Z,32.60
2019-04-22T18:57:53.477Z,40.75
2019-04-22T19:00:16.240Z,88.50
2019-04-22T19:02:56.938Z,58.40
2019-04-22T19:05:35.901Z,50.00
2019-04-22T19:08:17.901Z,27.00
2019-04-22T19:44:50.791Z,35.75
2019-04-22T19:47:38.463Z,42.00
2019-04-22T19:49:57.926Z,34.25
2019-04-22T19:52:28.826Z,53.40
2019-04-22T19:55:01.532Z,21.20
2019-04-22T19:57:31.389Z,34.60
2019-04-22T20:00:03.628Z,29.00
2019-04-22T20:03:26.437Z,27.40
2019-04-22T20:05:58.112Z,26.00
2019-04-22T20:08:26.397Z,22.20
2019-04-22T20:11:04.006Z,17.00
2019-04-22T20:13:38.650Z,29.00
2019-04-22T20:15:57.539Z,19.00
2019-04-22T23:39:02.420Z,24.00
2019-04-22T23:41:46.445Z,28.80
2019-04-22T23:44:15.949Z,27.40
2019-04-22T23:46:56.788Z,34.40
2019-04-22T23:49:31.519Z,31.40
2019-04-22T23:52:10.064Z,28.80
